sensor_id;sensor_type;location;lat;lon;timestamp;temperature;humidity
64620;DHT22;51029;51.058;13.826;2023-06-24T00:00:08;16.40;99.90
64620;DHT22;51029;51.058;13.826;2023-06-24T00:02:37;16.30;99.90
64620;DHT22;51029;51.058;13.826;2023-06-24T00:05:03;16.30;99.90
64620;DHT22;51029;51.058;13.826;2023-06-24T00:07:30;16.30;99.90
64620;DHT22;51029;51.058;13.826;2023-06-24T00:09:55;16.30;99.90
64620;DHT22;51029;51.058;13.826;2023-06-24T00:12:21;16.20;99.90
64620;DHT22;51029;51.058;13.826;2023-06-24T00:14:47;16.20;99.90
64620;DHT22;51029;51.058;13.826;2023-06-24T00:17:13;16.20;99.90
64620;DHT22;51029;51.058;13.826;2023-06-24T00:19:39;16.20;99.90
64620;DHT22;51029;51.058;13.826;2023-06-24T00:22:04;16.20;99.90
64620;DHT22;51029;51.058;13.826;2023-06-24T00:24:31;16.10;99.90
64620;DHT22;51029;51.058;13.826;2023-06-24T00:26:57;16.10;99.90
64620;DHT22;51029;51.058;13.826;2023-06-24T00:29:22;16.10;99.90
64620;DHT22;51029;51.058;13.826;2023-06-24T00:31:48;16.10;99.90
64620;DHT22;51029;51.058;13.826;2023-06-24T00:34:14;16.10;99.90
64620;DHT22;51029;51.058;13.826;2023-06-24T00:36:39;16.10;99.90
64620;DHT22;51029;51.058;13.826;2023-06-24T00:39:05;16.10;99.90
64620;DHT22;51029;51.058;13.826;2023-06-24T00:41:32;16.10;99.90
64620;DHT22;51029;51.058;13.826;2023-06-24T00:43:59;16.10;99.90
64620;DHT22;51029;51.058;13.826;2023-06-24T00:46:25;16.10;99.90
64620;DHT22;51029;51.058;13.826;2023-06-24T00:49:00;16.20;99.90
64620;DHT22;51029;51.058;13.826;2023-06-24T00:51:28;16.20;99.90
64620;DHT22;51029;51.058;13.826;2023-06-24T00:53:57;16.20;99.90
64620;DHT22;51029;51.058;13.826;2023-06-24T00:56:34;16.20;99.90
64620;DHT22;51029;51.058;13.826;2023-06-24T00:59:02;16.20;99.90
64620;DHT22;51029;51.058;13.826;2023-06-24T01:01:33;16.20;99.90
64620;DHT22;51029;51.058;13.826;2023-06-24T01:04:01;16.20;99.90
64620;DHT22;51029;51.058;13.826;2023-06-24T01:06:30;16.10;99.90
64620;DHT22;51029;51.058;13.826;2023-06-24T01:09:00;16.10;99.90
64620;DHT22;51029;51.058;13.826;2023-06-24T01:11:28;16.10;99.90
64620;DHT22;51029;51.058;13.826;2023-06-24T01:13:54;16.20;99.90
64620;DHT22;51029;51.058;13.826;2023-06-24T01:19:46;16.10;99.90
64620;DHT22;51029;51.058;13.826;2023-06-24T01:28:07;16.20;99.90
64620;DHT22;51029;51.058;13.826;2023-06-24T01:33:38;16.30;99.90
64620;DHT22;51029;51.058;13.826;2023-06-24T01:36:09;16.30;99.90
64620;DHT22;51029;51.058;13.826;2023-06-24T01:38:48;16.40;99.90
64620;DHT22;51029;51.058;13.826;2023-06-24T01:41:21;16.40;99.90
64620;DHT22;51029;51.058;13.826;2023-06-24T01:43:48;16.40;99.90
64620;DHT22;51029;51.058;13.826;2023-06-24T01:46:16;16.40;99.90
64620;DHT22;51029;51.058;13.826;2023-06-24T01:48:45;16.40;99.90
64620;DHT22;51029;51.058;13.826;2023-06-24T01:51:14;16.40;99.90
64620;DHT22;51029;51.058;13.826;2023-06-24T01:54:02;16.40;99.90
64620;DHT22;51029;51.058;13.826;2023-06-24T01:56:29;16.40;99.90
64620;DHT22;51029;51.058;13.826;2023-06-24T01:58:58;16.40;99.90
64620;DHT22;51029;51.058;13.826;2023-06-24T02:01:24;16.40;99.90
64620;DHT22;51029;51.058;13.826;2023-06-24T02:03:50;16.40;99.90
64620;DHT22;51029;51.058;13.826;2023-06-24T02:06:19;16.40;99.90
64620;DHT22;51029;51.058;13.826;2023-06-24T02:08:45;16.40;99.90
64620;DHT22;51029;51.058;13.826;2023-06-24T02:11:13;16.40;99.90
64620;DHT22;51029;51.058;13.826;2023-06-24T02:13:40;16.50;99.90
64620;DHT22;51029;51.058;13.826;2023-06-24T02:16:08;16.50;99.90
64620;DHT22;51029;51.058;13.826;2023-06-24T02:18:37;16.50;99.90
64620;DHT22;51029;51.058;13.826;2023-06-24T02:21:07;16.60;99.90
64620;DHT22;51029;51.058;13.826;2023-06-24T02:23:34;16.60;99.90
64620;DHT22;51029;51.058;13.826;2023-06-24T02:26:01;16.70;99.90
64620;DHT22;51029;51.058;13.826;2023-06-24T02:28:28;16.70;99.90
64620;DHT22;51029;51.058;13.826;2023-06-24T02:30:54;16.70;99.90
64620;DHT22;51029;51.058;13.826;2023-06-24T02:33:20;16.70;99.90
64620;DHT22;51029;51.058;13.826;2023-06-24T02:35:46;16.80;99.90
64620;DHT22;51029;51.058;13.826;2023-06-24T02:38:12;16.80;99.90
64620;DHT22;51029;51.058;13.826;2023-06-24T02:40:37;16.80;99.90
64620;DHT22;51029;51.058;13.826;2023-06-24T02:43:03;16.80;99.90
64620;DHT22;51029;51.058;13.826;2023-06-24T02:45:29;16.80;99.90
64620;DHT22;51029;51.058;13.826;2023-06-24T02:47:55;16.80;99.90
64620;DHT22;51029;51.058;13.826;2023-06-24T02:50:21;16.90;99.90
64620;DHT22;51029;51.058;13.826;2023-06-24T02:52:48;16.80;99.90
64620;DHT22;51029;51.058;13.826;2023-06-24T02:55:14;16.80;99.90
64620;DHT22;51029;51.058;13.826;2023-06-24T02:57:40;16.90;99.90
64620;DHT22;51029;51.058;13.826;2023-06-24T03:00:07;16.90;99.90
64620;DHT22;51029;51.058;13.826;2023-06-24T03:02:43;16.90;99.90
64620;DHT22;51029;51.058;13.826;2023-06-24T03:05:10;16.90;99.90
64620;DHT22;51029;51.058;13.826;2023-06-24T03:07:37;16.90;99.90
64620;DHT22;51029;51.058;13.826;2023-06-24T03:10:03;16.90;99.90
64620;DHT22;51029;51.058;13.826;2023-06-24T03:12:31;16.90;99.90
64620;DHT22;51029;51.058;13.826;2023-06-24T03:14:56;16.90;99.90
64620;DHT22;51029;51.058;13.826;2023-06-24T03:17:22;16.90;99.90
64620;DHT22;51029;51.058;13.826;2023-06-24T03:19:48;16.90;99.90
64620;DHT22;51029;51.058;13.826;2023-06-24T03:22:13;16.90;99.90
64620;DHT22;51029;51.058;13.826;2023-06-24T03:24:39;16.90;99.90
64620;DHT22;51029;51.058;13.826;2023-06-24T03:27:04;16.90;99.90
64620;DHT22;51029;51.058;13.826;2023-06-24T03:29:30;16.90;99.90
64620;DHT22;51029;51.058;13.826;2023-06-24T03:31:55;16.90;99.90
64620;DHT22;51029;51.058;13.826;2023-06-24T03:34:21;16.90;99.90
64620;DHT22;51029;51.058;13.826;2023-06-24T03:36:46;16.90;99.90
64620;DHT22;51029;51.058;13.826;2023-06-24T03:39:12;16.80;99.90
64620;DHT22;51029;51.058;13.826;2023-06-24T03:41:37;16.80;99.90
64620;DHT22;51029;51.058;13.826;2023-06-24T03:44:04;16.70;99.90
64620;DHT22;51029;51.058;13.826;2023-06-24T03:46:30;16.70;99.90
64620;DHT22;51029;51.058;13.826;2023-06-24T03:48:58;16.60;99.90
64620;DHT22;51029;51.058;13.826;2023-06-24T03:51:24;16.50;99.90
64620;DHT22;51029;51.058;13.826;2023-06-24T03:53:49;16.40;99.90
64620;DHT22;51029;51.058;13.826;2023-06-24T03:56:15;16.40;99.90
64620;DHT22;51029;51.058;13.826;2023-06-24T03:58:41;16.40;99.90
64620;DHT22;51029;51.058;13.826;2023-06-24T04:01:06;16.30;99.90
64620;DHT22;51029;51.058;13.826;2023-06-24T04:03:32;16.30;99.90
64620;DHT22;51029;51.058;13.826;2023-06-24T04:05:57;16.40;99.90
64620;DHT22;51029;51.058;13.826;2023-06-24T04:08:23;16.60;99.90
64620;DHT22;51029;51.058;13.826;2023-06-24T04:10:54;16.70;99.90
64620;DHT22;51029;51.058;13.826;2023-06-24T04:13:20;16.80;99.90
64620;DHT22;51029;51.058;13.826;2023-06-24T04:15:45;16.90;99.90
64620;DHT22;51029;51.058;13.826;2023-06-24T04:18:11;16.80;99.90
64620;DHT22;51029;51.058;13.826;2023-06-24T04:20:36;16.80;99.90
64620;DHT22;51029;51.058;13.826;2023-06-24T04:23:03;16.80;99.90
64620;DHT22;51029;51.058;13.826;2023-06-24T04:25:28;16.70;99.90
64620;DHT22;51029;51.058;13.826;2023-06-24T04:27:54;16.70;99.90
64620;DHT22;51029;51.058;13.826;2023-06-24T04:30:19;16.70;99.90
64620;DHT22;51029;51.058;13.826;2023-06-24T04:32:45;16.80;99.90
64620;DHT22;51029;51.058;13.826;2023-06-24T04:35:11;16.90;99.90
64620;DHT22;51029;51.058;13.826;2023-06-24T04:37:36;17.00;99.90
64620;DHT22;51029;51.058;13.826;2023-06-24T04:40:02;17.10;99.90
64620;DHT22;51029;51.058;13.826;2023-06-24T04:42:28;17.10;99.90
64620;DHT22;51029;51.058;13.826;2023-06-24T04:44:55;17.30;99.90
64620;DHT22;51029;51.058;13.826;2023-06-24T04:47:20;17.30;99.90
64620;DHT22;51029;51.058;13.826;2023-06-24T04:49:46;17.40;99.90
64620;DHT22;51029;51.058;13.826;2023-06-24T04:52:12;17.50;99.90
64620;DHT22;51029;51.058;13.826;2023-06-24T04:54:37;17.60;99.90
64620;DHT22;51029;51.058;13.826;2023-06-24T04:57:32;17.70;99.90
64620;DHT22;51029;51.058;13.826;2023-06-24T04:59:58;17.80;99.90
64620;DHT22;51029;51.058;13.826;2023-06-24T05:02:24;17.80;99.90
64620;DHT22;51029;51.058;13.826;2023-06-24T05:04:51;17.80;99.90
64620;DHT22;51029;51.058;13.826;2023-06-24T05:07:16;17.80;99.90
64620;DHT22;51029;51.058;13.826;2023-06-24T05:09:42;17.60;99.90
64620;DHT22;51029;51.058;13.826;2023-06-24T05:12:09;17.50;99.90
64620;DHT22;51029;51.058;13.826;2023-06-24T05:14:35;17.50;99.90
64620;DHT22;51029;51.058;13.826;2023-06-24T05:17:01;17.50;99.90
64620;DHT22;51029;51.058;13.826;2023-06-24T05:19:27;17.70;99.90
64620;DHT22;51029;51.058;13.826;2023-06-24T05:21:52;17.70;99.90
64620;DHT22;51029;51.058;13.826;2023-06-24T05:24:18;17.70;99.90
64620;DHT22;51029;51.058;13.826;2023-06-24T05:26:46;17.70;99.90
64620;DHT22;51029;51.058;13.826;2023-06-24T05:29:12;17.70;99.90
64620;DHT22;51029;51.058;13.826;2023-06-24T05:31:37;17.60;99.90
64620;DHT22;51029;51.058;13.826;2023-06-24T05:34:03;17.70;99.90
64620;DHT22;51029;51.058;13.826;2023-06-24T05:36:28;17.80;99.90
64620;DHT22;51029;51.058;13.826;2023-06-24T05:38:54;17.80;99.90
64620;DHT22;51029;51.058;13.826;2023-06-24T05:41:19;17.70;99.90
64620;DHT22;51029;51.058;13.826;2023-06-24T05:43:45;17.70;99.90
64620;DHT22;51029;51.058;13.826;2023-06-24T05:46:11;17.60;99.90
64620;DHT22;51029;51.058;13.826;2023-06-24T05:48:37;17.60;99.90
64620;DHT22;51029;51.058;13.826;2023-06-24T05:51:02;17.60;99.90
64620;DHT22;51029;51.058;13.826;2023-06-24T05:53:28;17.60;99.90
64620;DHT22;51029;51.058;13.826;2023-06-24T05:55:53;17.50;99.90
64620;DHT22;51029;51.058;13.826;2023-06-24T05:58:19;17.50;99.90
64620;DHT22;51029;51.058;13.826;2023-06-24T06:00:44;17.50;99.90
64620;DHT22;51029;51.058;13.826;2023-06-24T06:03:10;17.60;99.90
64620;DHT22;51029;51.058;13.826;2023-06-24T06:05:36;17.60;99.90
64620;DHT22;51029;51.058;13.826;2023-06-24T06:08:01;17.60;99.90
64620;DHT22;51029;51.058;13.826;2023-06-24T06:10:27;17.60;99.90
64620;DHT22;51029;51.058;13.826;2023-06-24T06:12:52;17.60;99.90
64620;DHT22;51029;51.058;13.826;2023-06-24T06:15:20;17.60;99.90
64620;DHT22;51029;51.058;13.826;2023-06-24T06:17:46;17.60;99.90
64620;DHT22;51029;51.058;13.826;2023-06-24T06:20:12;17.60;99.90
64620;DHT22;51029;51.058;13.826;2023-06-24T06:22:37;17.50;99.90
64620;DHT22;51029;51.058;13.826;2023-06-24T06:25:07;17.50;99.90
64620;DHT22;51029;51.058;13.826;2023-06-24T06:27:32;17.30;99.90
64620;DHT22;51029;51.058;13.826;2023-06-24T06:29:58;17.20;99.90
64620;DHT22;51029;51.058;13.826;2023-06-24T06:32:23;17.20;99.90
64620;DHT22;51029;51.058;13.826;2023-06-24T06:34:49;17.10;99.90
64620;DHT22;51029;51.058;13.826;2023-06-24T06:37:14;17.00;99.90
64620;DHT22;51029;51.058;13.826;2023-06-24T06:39:40;17.10;99.90
64620;DHT22;51029;51.058;13.826;2023-06-24T06:42:06;17.10;99.90
64620;DHT22;51029;51.058;13.826;2023-06-24T06:44:31;17.10;99.90
64620;DHT22;51029;51.058;13.826;2023-06-24T06:47:00;17.10;99.90
64620;DHT22;51029;51.058;13.826;2023-06-24T06:49:25;17.10;99.90
64620;DHT22;51029;51.058;13.826;2023-06-24T06:51:54;17.20;99.90
64620;DHT22;51029;51.058;13.826;2023-06-24T06:54:20;17.10;99.90
64620;DHT22;51029;51.058;13.826;2023-06-24T06:56:45;17.10;99.90
64620;DHT22;51029;51.058;13.826;2023-06-24T06:59:11;17.10;99.90
64620;DHT22;51029;51.058;13.826;2023-06-24T07:01:36;17.10;99.90
64620;DHT22;51029;51.058;13.826;2023-06-24T07:04:02;17.10;99.90
64620;DHT22;51029;51.058;13.826;2023-06-24T07:06:27;17.10;99.90
64620;DHT22;51029;51.058;13.826;2023-06-24T07:08:53;17.00;99.90
64620;DHT22;51029;51.058;13.826;2023-06-24T07:11:19;17.00;99.90
64620;DHT22;51029;51.058;13.826;2023-06-24T07:13:44;17.00;99.90
64620;DHT22;51029;51.058;13.826;2023-06-24T07:16:11;17.00;99.90
64620;DHT22;51029;51.058;13.826;2023-06-24T07:18:36;17.00;99.90
64620;DHT22;51029;51.058;13.826;2023-06-24T07:21:02;17.00;99.90
64620;DHT22;51029;51.058;13.826;2023-06-24T07:23:27;17.00;99.90
64620;DHT22;51029;51.058;13.826;2023-06-24T07:25:53;17.10;99.90
64620;DHT22;51029;51.058;13.826;2023-06-24T07:28:18;17.10;99.90
64620;DHT22;51029;51.058;13.826;2023-06-24T07:30:44;17.20;99.90
64620;DHT22;51029;51.058;13.826;2023-06-24T07:33:10;17.20;99.90
64620;DHT22;51029;51.058;13.826;2023-06-24T07:35:35;17.20;99.90
64620;DHT22;51029;51.058;13.826;2023-06-24T07:38:01;17.20;99.90
64620;DHT22;51029;51.058;13.826;2023-06-24T07:40:26;17.20;99.90
64620;DHT22;51029;51.058;13.826;2023-06-24T07:42:53;17.40;99.90
64620;DHT22;51029;51.058;13.826;2023-06-24T07:45:18;17.50;99.90
64620;DHT22;51029;51.058;13.826;2023-06-24T07:47:44;17.60;99.90
64620;DHT22;51029;51.058;13.826;2023-06-24T07:50:09;17.70;99.90
64620;DHT22;51029;51.058;13.826;2023-06-24T07:52:36;17.70;99.90
64620;DHT22;51029;51.058;13.826;2023-06-24T07:55:02;17.70;99.90
64620;DHT22;51029;51.058;13.826;2023-06-24T07:57:29;17.90;99.90
64620;DHT22;51029;51.058;13.826;2023-06-24T07:59:54;18.10;99.90
64620;DHT22;51029;51.058;13.826;2023-06-24T08:02:20;18.10;99.90
64620;DHT22;51029;51.058;13.826;2023-06-24T08:04:45;18.10;99.90
64620;DHT22;51029;51.058;13.826;2023-06-24T08:07:11;18.50;99.90
64620;DHT22;51029;51.058;13.826;2023-06-24T08:09:37;19.00;99.90
64620;DHT22;51029;51.058;13.826;2023-06-24T08:12:02;19.20;99.90
64620;DHT22;51029;51.058;13.826;2023-06-24T08:14:28;19.60;99.90
64620;DHT22;51029;51.058;13.826;2023-06-24T08:16:53;19.70;99.90
64620;DHT22;51029;51.058;13.826;2023-06-24T08:19:19;19.60;99.90
64620;DHT22;51029;51.058;13.826;2023-06-24T08:21:44;19.70;99.90
64620;DHT22;51029;51.058;13.826;2023-06-24T08:24:10;19.70;99.90
64620;DHT22;51029;51.058;13.826;2023-06-24T08:26:35;19.60;99.90
64620;DHT22;51029;51.058;13.826;2023-06-24T08:29:01;19.20;99.90
64620;DHT22;51029;51.058;13.826;2023-06-24T08:31:26;19.30;99.90
64620;DHT22;51029;51.058;13.826;2023-06-24T08:33:53;19.30;99.90
64620;DHT22;51029;51.058;13.826;2023-06-24T08:36:21;19.30;99.90
64620;DHT22;51029;51.058;13.826;2023-06-24T08:38:47;19.30;99.90
64620;DHT22;51029;51.058;13.826;2023-06-24T08:41:12;19.30;99.90
64620;DHT22;51029;51.058;13.826;2023-06-24T08:43:38;19.30;99.90
64620;DHT22;51029;51.058;13.826;2023-06-24T08:46:05;19.60;99.90
64620;DHT22;51029;51.058;13.826;2023-06-24T08:48:31;19.80;99.90
64620;DHT22;51029;51.058;13.826;2023-06-24T08:50:58;20.20;99.90
64620;DHT22;51029;51.058;13.826;2023-06-24T08:53:26;20.70;99.90
64620;DHT22;51029;51.058;13.826;2023-06-24T08:55:53;21.10;99.90
64620;DHT22;51029;51.058;13.826;2023-06-24T08:58:20;21.40;99.90
64620;DHT22;51029;51.058;13.826;2023-06-24T09:00:46;21.60;99.90
64620;DHT22;51029;51.058;13.826;2023-06-24T09:03:12;21.30;99.90
64620;DHT22;51029;51.058;13.826;2023-06-24T09:05:37;21.60;99.90
64620;DHT22;51029;51.058;13.826;2023-06-24T09:08:03;21.50;99.90
64620;DHT22;51029;51.058;13.826;2023-06-24T09:10:30;21.10;99.90
64620;DHT22;51029;51.058;13.826;2023-06-24T09:13:00;20.90;99.90
64620;DHT22;51029;51.058;13.826;2023-06-24T09:15:30;20.80;99.90
64620;DHT22;51029;51.058;13.826;2023-06-24T09:17:56;20.90;99.90
64620;DHT22;51029;51.058;13.826;2023-06-24T09:20:22;21.20;99.90
64620;DHT22;51029;51.058;13.826;2023-06-24T09:22:49;21.60;99.90
64620;DHT22;51029;51.058;13.826;2023-06-24T09:25:19;21.40;99.90
64620;DHT22;51029;51.058;13.826;2023-06-24T09:27:48;21.40;99.90
64620;DHT22;51029;51.058;13.826;2023-06-24T09:30:23;21.60;99.90
64620;DHT22;51029;51.058;13.826;2023-06-24T09:32:54;21.40;99.90
64620;DHT22;51029;51.058;13.826;2023-06-24T09:35:25;21.70;99.90
64620;DHT22;51029;51.058;13.826;2023-06-24T09:37:58;21.60;99.90
64620;DHT22;51029;51.058;13.826;2023-06-24T09:40:35;21.50;99.90
64620;DHT22;51029;51.058;13.826;2023-06-24T09:43:07;21.80;99.90
64620;DHT22;51029;51.058;13.826;2023-06-24T09:45:35;22.70;99.90
64620;DHT22;51029;51.058;13.826;2023-06-24T09:48:04;23.30;99.90
64620;DHT22;51029;51.058;13.826;2023-06-24T09:50:57;23.10;99.90
64620;DHT22;51029;51.058;13.826;2023-06-24T09:53:34;22.70;99.90
64620;DHT22;51029;51.058;13.826;2023-06-24T09:56:08;22.70;99.90
64620;DHT22;51029;51.058;13.826;2023-06-24T09:58:39;23.10;99.90
64620;DHT22;51029;51.058;13.826;2023-06-24T10:01:09;23.50;99.90
64620;DHT22;51029;51.058;13.826;2023-06-24T10:03:36;24.50;99.90
64620;DHT22;51029;51.058;13.826;2023-06-24T10:06:14;25.70;99.90
64620;DHT22;51029;51.058;13.826;2023-06-24T10:08:40;25.70;99.90
64620;DHT22;51029;51.058;13.826;2023-06-24T10:11:06;26.90;99.90
64620;DHT22;51029;51.058;13.826;2023-06-24T10:13:32;28.00;99.90
64620;DHT22;51029;51.058;13.826;2023-06-24T10:15:58;26.70;99.90
64620;DHT22;51029;51.058;13.826;2023-06-24T10:18:39;25.50;99.90
64620;DHT22;51029;51.058;13.826;2023-06-24T10:21:07;24.70;99.90
64620;DHT22;51029;51.058;13.826;2023-06-24T10:23:51;25.40;99.90
64620;DHT22;51029;51.058;13.826;2023-06-24T10:26:35;26.30;99.90
64620;DHT22;51029;51.058;13.826;2023-06-24T10:29:12;28.10;99.90
64620;DHT22;51029;51.058;13.826;2023-06-24T10:34:27;27.20;99.90
64620;DHT22;51029;51.058;13.826;2023-06-24T10:37:09;26.70;99.90
64620;DHT22;51029;51.058;13.826;2023-06-24T10:42:42;25.40;99.90
64620;DHT22;51029;51.058;13.826;2023-06-24T10:47:38;25.50;99.90
64620;DHT22;51029;51.058;13.826;2023-06-24T10:50:06;27.80;99.90
64620;DHT22;51029;51.058;13.826;2023-06-24T10:52:32;28.00;99.90
64620;DHT22;51029;51.058;13.826;2023-06-24T10:54:58;27.60;99.90
64620;DHT22;51029;51.058;13.826;2023-06-24T10:57:27;26.50;99.90
64620;DHT22;51029;51.058;13.826;2023-06-24T10:59:55;28.80;99.90
64620;DHT22;51029;51.058;13.826;2023-06-24T11:02:22;30.40;99.90
64620;DHT22;51029;51.058;13.826;2023-06-24T11:04:59;31.90;99.90
64620;DHT22;51029;51.058;13.826;2023-06-24T11:07:29;29.70;99.90
64620;DHT22;51029;51.058;13.826;2023-06-24T11:10:01;28.40;99.90
64620;DHT22;51029;51.058;13.826;2023-06-24T11:12:37;29.40;99.90
64620;DHT22;51029;51.058;13.826;2023-06-24T11:15:08;30.90;99.90
64620;DHT22;51029;51.058;13.826;2023-06-24T11:17:34;31.60;99.90
64620;DHT22;51029;51.058;13.826;2023-06-24T11:20:01;30.90;99.90
64620;DHT22;51029;51.058;13.826;2023-06-24T11:22:27;32.90;99.90
64620;DHT22;51029;51.058;13.826;2023-06-24T11:24:54;35.00;99.10
64620;DHT22;51029;51.058;13.826;2023-06-24T11:27:31;36.30;91.90
64620;DHT22;51029;51.058;13.826;2023-06-24T11:29:59;37.70;81.30
64620;DHT22;51029;51.058;13.826;2023-06-24T11:32:40;36.90;73.50
64620;DHT22;51029;51.058;13.826;2023-06-24T11:35:10;40.20;65.90
64620;DHT22;51029;51.058;13.826;2023-06-24T11:37:36;37.70;64.80
64620;DHT22;51029;51.058;13.826;2023-06-24T11:40:06;35.00;74.00
64620;DHT22;51029;51.058;13.826;2023-06-24T11:42:36;38.40;68.40
64620;DHT22;51029;51.058;13.826;2023-06-24T11:45:21;38.10;61.80
64620;DHT22;51029;51.058;13.826;2023-06-24T11:47:47;39.00;59.40
64620;DHT22;51029;51.058;13.826;2023-06-24T11:50:13;39.20;57.60
64620;DHT22;51029;51.058;13.826;2023-06-24T11:52:47;35.40;61.30
64620;DHT22;51029;51.058;13.826;2023-06-24T11:55:22;38.60;60.30
64620;DHT22;51029;51.058;13.826;2023-06-24T11:58:01;40.80;54.80
64620;DHT22;51029;51.058;13.826;2023-06-24T12:00:32;36.50;57.00
64620;DHT22;51029;51.058;13.826;2023-06-24T12:03:00;38.30;59.40
64620;DHT22;51029;51.058;13.826;2023-06-24T12:05:28;38.40;58.50
64620;DHT22;51029;51.058;13.826;2023-06-24T12:07:55;38.60;57.20
64620;DHT22;51029;51.058;13.826;2023-06-24T12:10:21;39.70;52.50
64620;DHT22;51029;51.058;13.826;2023-06-24T12:12:47;42.10;51.20
64620;DHT22;51029;51.058;13.826;2023-06-24T12:15:13;44.20;47.80
64620;DHT22;51029;51.058;13.826;2023-06-24T12:17:38;42.00;48.90
64620;DHT22;51029;51.058;13.826;2023-06-24T12:20:04;45.10;47.80
64620;DHT22;51029;51.058;13.826;2023-06-24T12:22:30;45.00;44.80
64620;DHT22;51029;51.058;13.826;2023-06-24T12:24:55;45.80;43.50
64620;DHT22;51029;51.058;13.826;2023-06-24T12:27:21;46.50;43.00
64620;DHT22;51029;51.058;13.826;2023-06-24T12:29:46;46.60;40.60
64620;DHT22;51029;51.058;13.826;2023-06-24T12:32:12;43.50;41.90
64620;DHT22;51029;51.058;13.826;2023-06-24T12:34:37;41.40;43.80
64620;DHT22;51029;51.058;13.826;2023-06-24T12:37:03;37.80;47.10
64620;DHT22;51029;51.058;13.826;2023-06-24T12:39:29;36.00;49.40
64620;DHT22;51029;51.058;13.826;2023-06-24T12:41:54;38.00;48.90
64620;DHT22;51029;51.058;13.826;2023-06-24T12:44:20;41.60;45.20
64620;DHT22;51029;51.058;13.826;2023-06-24T12:46:45;43.00;41.60
64620;DHT22;51029;51.058;13.826;2023-06-24T12:49:11;43.00;40.50
64620;DHT22;51029;51.058;13.826;2023-06-24T12:51:36;43.50;39.90
64620;DHT22;51029;51.058;13.826;2023-06-24T12:54:02;43.90;39.80
64620;DHT22;51029;51.058;13.826;2023-06-24T12:56:27;46.30;37.70
64620;DHT22;51029;51.058;13.826;2023-06-24T12:58:53;46.30;36.20
64620;DHT22;51029;51.058;13.826;2023-06-24T13:01:18;46.40;36.10
64620;DHT22;51029;51.058;13.826;2023-06-24T13:03:44;47.20;34.70
64620;DHT22;51029;51.058;13.826;2023-06-24T13:06:09;47.80;35.20
64620;DHT22;51029;51.058;13.826;2023-06-24T13:08:35;44.20;33.80
64620;DHT22;51029;51.058;13.826;2023-06-24T13:11:00;40.70;38.30
64620;DHT22;51029;51.058;13.826;2023-06-24T13:13:26;43.80;37.40
64620;DHT22;51029;51.058;13.826;2023-06-24T13:15:51;45.60;34.20
64620;DHT22;51029;51.058;13.826;2023-06-24T13:18:17;41.00;35.30
64620;DHT22;51029;51.058;13.826;2023-06-24T13:20:45;38.50;37.70
64620;DHT22;51029;51.058;13.826;2023-06-24T13:23:10;37.80;41.30
64620;DHT22;51029;51.058;13.826;2023-06-24T13:25:36;41.30;38.50
64620;DHT22;51029;51.058;13.826;2023-06-24T13:28:02;45.00;35.20
64620;DHT22;51029;51.058;13.826;2023-06-24T13:30:28;45.60;33.10
64620;DHT22;51029;51.058;13.826;2023-06-24T13:32:54;46.30;32.40
64620;DHT22;51029;51.058;13.826;2023-06-24T13:35:19;44.90;31.60
64620;DHT22;51029;51.058;13.826;2023-06-24T13:37:45;44.80;30.80
64620;DHT22;51029;51.058;13.826;2023-06-24T13:40:11;46.70;31.50
64620;DHT22;51029;51.058;13.826;2023-06-24T13:42:36;47.00;29.70
64620;DHT22;51029;51.058;13.826;2023-06-24T13:45:02;48.00;29.60
64620;DHT22;51029;51.058;13.826;2023-06-24T13:47:28;48.70;29.20
64620;DHT22;51029;51.058;13.826;2023-06-24T13:49:54;49.80;27.30
64620;DHT22;51029;51.058;13.826;2023-06-24T13:52:19;48.30;28.00
64620;DHT22;51029;51.058;13.826;2023-06-24T13:54:46;48.60;28.00
64620;DHT22;51029;51.058;13.826;2023-06-24T13:57:12;49.50;27.60
64620;DHT22;51029;51.058;13.826;2023-06-24T13:59:37;50.20;27.10
64620;DHT22;51029;51.058;13.826;2023-06-24T14:02:03;48.10;26.10
64620;DHT22;51029;51.058;13.826;2023-06-24T14:04:29;48.00;26.80
64620;DHT22;51029;51.058;13.826;2023-06-24T14:06:54;47.00;27.40
64620;DHT22;51029;51.058;13.826;2023-06-24T14:09:20;46.80;27.30
64620;DHT22;51029;51.058;13.826;2023-06-24T14:11:45;44.00;27.70
64620;DHT22;51029;51.058;13.826;2023-06-24T14:14:11;39.30;29.90
64620;DHT22;51029;51.058;13.826;2023-06-24T14:16:36;36.90;34.50
64620;DHT22;51029;51.058;13.826;2023-06-24T14:19:02;35.30;36.60
64620;DHT22;51029;51.058;13.826;2023-06-24T14:21:27;32.80;40.10
64620;DHT22;51029;51.058;13.826;2023-06-24T14:23:54;31.60;44.20
64620;DHT22;51029;51.058;13.826;2023-06-24T14:26:20;30.90;48.50
64620;DHT22;51029;51.058;13.826;2023-06-24T14:28:45;30.30;51.70
64620;DHT22;51029;51.058;13.826;2023-06-24T14:31:11;30.40;54.60
64620;DHT22;51029;51.058;13.826;2023-06-24T14:33:36;30.10;56.20
64620;DHT22;51029;51.058;13.826;2023-06-24T14:36:02;29.50;56.60
64620;DHT22;51029;51.058;13.826;2023-06-24T14:38:27;30.90;59.30
64620;DHT22;51029;51.058;13.826;2023-06-24T14:40:53;35.60;48.30
64620;DHT22;51029;51.058;13.826;2023-06-24T14:43:21;35.60;42.50
64620;DHT22;51029;51.058;13.826;2023-06-24T14:45:46;37.00;41.60
64620;DHT22;51029;51.058;13.826;2023-06-24T14:48:12;39.60;36.90
64620;DHT22;51029;51.058;13.826;2023-06-24T14:50:38;41.50;34.80
64620;DHT22;51029;51.058;13.826;2023-06-24T14:53:03;39.30;31.20
64620;DHT22;51029;51.058;13.826;2023-06-24T14:55:29;35.40;35.80
64620;DHT22;51029;51.058;13.826;2023-06-24T14:57:55;33.30;39.40
64620;DHT22;51029;51.058;13.826;2023-06-24T15:00:20;32.30;43.70
64620;DHT22;51029;51.058;13.826;2023-06-24T15:02:46;31.20;45.10
64620;DHT22;51029;51.058;13.826;2023-06-24T15:05:12;30.10;50.10
64620;DHT22;51029;51.058;13.826;2023-06-24T15:07:37;29.50;54.10
64620;DHT22;51029;51.058;13.826;2023-06-24T15:10:06;28.70;57.10
64620;DHT22;51029;51.058;13.826;2023-06-24T15:12:32;28.00;56.50
64620;DHT22;51029;51.058;13.826;2023-06-24T15:14:58;27.40;60.50
64620;DHT22;51029;51.058;13.826;2023-06-24T15:17:24;27.10;63.00
64620;DHT22;51029;51.058;13.826;2023-06-24T15:19:49;27.00;67.80
64620;DHT22;51029;51.058;13.826;2023-06-24T15:22:15;27.10;70.10
64620;DHT22;51029;51.058;13.826;2023-06-24T15:24:41;27.00;65.50
64620;DHT22;51029;51.058;13.826;2023-06-24T15:27:10;27.20;68.30
64620;DHT22;51029;51.058;13.826;2023-06-24T15:29:35;27.40;66.70
64620;DHT22;51029;51.058;13.826;2023-06-24T15:32:01;27.50;65.40
64620;DHT22;51029;51.058;13.826;2023-06-24T15:34:27;27.40;66.70